C. Angelo — WCZ5866 — position and weather

sailwx.info

Track history (hours):
 
Tides and Currents Weather Stations Pressure Air Temp Water Temp Dewpoint Dewpoint Depression Visibility Wind Speed Wind Dir Waves Ship Positions

C. Angelo

Owner: G T 110 INC, NEW HAVEN, CT. More information available from US FCC via Universal Licensing System and Coast Guard Vessel Documentation Center.

Last reported at 2015-Jul-04 19:29 UTC. Time now 2015-Jul-06 20:04 UTC.
Position N 33°45' W 077°31'.

Length 30 m; draft 4.1 m.

Type: Tug. MMSI: 366988420.

Date/timePositionNaut miles runAvg speedWind from/ knotsBaromVisibWave heightAir tempDewpointWater temp
2015-Jul-04 19:29N 33°45' W 077°31'  
2015-Jul-01 17:18N 39°22' W 074°12'7 9.1
2015-Jul-01 16:33N 39°27' W 074°07'10 9.1
2015-Jul-01 15:30N 39°36' W 074°00'9 9.0
2015-Jul-01 14:33N 39°44' W 073°57'9 8.6
2015-Jul-01 13:33N 39°51' W 073°50'11 8.7
2015-Jul-01 12:15N 39°58' W 073°39'8 8.8
2015-Jul-01 11:21N 40°04' W 073°33'25 8.8
2015-Jul-01 08:31N 40°23' W 073°11'9 9.5
2015-Jul-01 07:33N 40°29' W 073°03'9 9.4
2015-Jul-01 06:33N 40°36' W 072°54'12 9.5
2015-Jul-01 05:17N 40°43' W 072°41'7 9.6
2015-Jul-01 04:33N 40°46' W 072°32'10 9.5
2015-Jul-01 03:33N 40°50' W 072°21'9 9.4
2015-Jul-01 02:33N 40°53' W 072°10'9 9.3
2015-Jul-01 01:33N 40°57' W 071°58'9 9.3
2015-Jul-01 00:33N 41°01' W 071°47'8 8.3
2015-Jun-30 23:33N 41°09' W 071°42'8 7.9
2015-Jun-30 22:33N 41°15' W 071°37'9 8.9
2015-Jun-30 21:33N 41°20' W 071°27'9 9.0
2015-Jun-30 20:33N 41°28' W 071°22'8 7.7
2015-Jun-30 19:33N 41°36' W 071°18'7 7.5
2015-Jun-30 18:33N 41°43' W 071°20'6 5.6
2015-Jun-30 17:32N 41°48' W 071°24'0 0.0
2015-Jun-30 13:15N 41°48' W 071°23'0 0.0
2015-Jun-30 12:33N 41°48' W 071°23'0 0.1
2015-Jun-30 11:32N 41°48' W 071°23'0 0.1
2015-Jun-30 10:33N 41°48' W 071°23'0 0.0
2015-Jun-30 09:28N 41°48' W 071°23'0 0.0
2015-Jun-30 08:33N 41°48' W 071°23'0 0.0
2015-Jun-30 07:33N 41°48' W 071°23'0 0.0
2015-Jun-30 06:33N 41°48' W 071°23'0 0.0
2015-Jun-30 05:33N 41°48' W 071°23'0 0.0
2015-Jun-30 04:31N 41°48' W 071°23'0 0.0
2015-Jun-30 03:33N 41°48' W 071°23'0 0.0
2015-Jun-30 02:33N 41°48' W 071°23'0 0.0
2015-Jun-30 01:27N 41°48' W 071°23'0 0.0
2015-Jun-30 00:30N 41°48' W 071°23'0 0.0
2015-Jun-29 23:18N 41°48' W 071°23'0 0.0
2015-Jun-29 22:33N 41°48' W 071°23'0 0.0
2015-Jun-29 21:33N 41°48' W 071°23'0 0.0
2015-Jun-29 19:33N 41°48' W 071°23'0 0.0
2015-Jun-29 18:03N 41°48' W 071°23'0 0.0
2015-Jun-29 13:31N 41°48' W 071°23'0 0.0
2015-Jun-29 12:33N 41°48' W 071°23'0 0.0
2015-Jun-29 11:30N 41°48' W 071°23'0 0.0
2015-Jun-29 10:33N 41°48' W 071°23'0 0.0
2015-Jun-29 09:25N 41°48' W 071°23'0 0.0
2015-Jun-29 08:29N 41°48' W 071°23'0 0.0
2015-Jun-29 07:33N 41°48' W 071°23'0 0.0
2015-Jun-29 06:30N 41°48' W 071°23'0 0.0
2015-Jun-29 05:33N 41°48' W 071°23'0 0.0
2015-Jun-29 04:33N 41°48' W 071°23'0 0.0
2015-Jun-29 03:33N 41°48' W 071°24'0 0.0
2015-Jun-29 02:33N 41°48' W 071°24'0 0.0
2015-Jun-29 01:33N 41°48' W 071°23'0 0.0
2015-Jun-29 00:33N 41°48' W 071°23'0 0.0
2015-Jun-28 23:33N 41°48' W 071°23'0 0.0
2015-Jun-28 22:33N 41°48' W 071°23'0 0.2
2015-Jun-28 20:30N 41°48' W 071°23'5 5.5
2015-Jun-28 19:33N 41°43' W 071°20'7 6.5
2015-Jun-28 18:26N 41°36' W 071°18'5 6.2
2015-Jun-28 17:33N 41°31' W 071°21'4 4.2
2015-Jun-28 16:33N 41°27' W 071°23'5 5.2
2015-Jun-28 15:33N 41°22' W 071°25'5 4.8
2015-Jun-28 14:33N 41°18' W 071°28'5 5.0
2015-Jun-28 13:33N 41°18' W 071°35'5 5.3
2015-Jun-28 12:33N 41°17' W 071°42'5 5.4
2015-Jun-28 11:33N 41°16' W 071°49'4 4.0
2015-Jun-28 10:33N 41°15' W 071°54'3 3.0
2015-Jun-28 09:33N 41°14' W 071°58'3 2.5
2015-Jun-28 08:33N 41°14' W 072°01'4 3.8
2015-Jun-28 07:33N 41°14' W 072°06'5 5.3
2015-Jun-28 06:33N 41°12' W 072°13'7 6.7
2015-Jun-28 05:33N 41°10' W 072°22'7 6.8
2015-Jun-28 04:33N 41°09' W 072°31'7 7.1
2015-Jun-28 03:33N 41°07' W 072°40'7 6.7
2015-Jun-28 02:33N 41°06' W 072°49'6 6.5
2015-Jun-28 01:33N 41°04' W 072°57'6 6.2
2015-Jun-28 00:33N 41°02' W 073°05'6 6.2
2015-Jun-27 23:33N 41°01' W 073°13'6 6.2
2015-Jun-27 22:33N 41°01' W 073°21'6 6.1
2015-Jun-27 21:33N 40°59' W 073°29'6 6.3
2015-Jun-27 20:33N 40°56' W 073°36'6 6.5
2015-Jun-27 19:33N 40°53' W 073°44'4 4.1
2015-Jun-27 18:31N 40°49' W 073°47'6 5.6
2015-Jun-27 17:31N 40°48' W 073°54'5 5.2
2015-Jun-27 16:33N 40°44' W 073°58'3 3.0
2015-Jun-27 15:33N 40°43' W 074°01'3 2.6
2015-Jun-27 14:33N 40°45' W 074°01'0 0.1
2015-Jun-27 13:33N 40°45' W 074°01'0 0.1
2015-Jun-27 12:33N 40°45' W 074°01'3 2.9
2015-Jun-27 11:33N 40°42' W 074°02'5 5.4
2015-Jun-27 10:33N 40°37' W 074°03'4 4.2
2015-Jun-27 09:33N 40°33' W 074°02'6 6.1
2015-Jun-27 08:33N 40°29' W 073°55'6 6.4
2015-Jun-27 07:33N 40°23' W 073°54'7 7.4
2015-Jun-27 06:33N 40°16' W 073°54'7 7.3
2015-Jun-27 05:33N 40°08' W 073°55'8 7.5
2015-Jun-27 04:29N 40°00' W 073°56'7 7.5
2015-Jun-27 03:33N 39°53' W 073°56'7 7.2
2015-Jun-27 02:33N 39°46' W 073°58'7 6.9
2015-Jun-27 01:33N 39°40' W 074°01'7 6.9
2015-Jun-27 00:33N 39°33' W 074°05'7 7.1
2015-Jun-26 23:33N 39°27' W 074°09'150 6.7
2015-Jun-26 01:17N 37°02' W 074°57'  
Track history (hours):
 
Tides and Currents Weather Stations Pressure Air Temp Water Temp Dewpoint Dewpoint Depression Visibility Wind Speed Wind Dir Waves Ship Positions

C. Angelo

Owner: G T 110 INC, NEW HAVEN, CT. More information available from US FCC via Universal Licensing System and Coast Guard Vessel Documentation Center.

Last reported at 2015-Jul-04 19:29 UTC. Time now 2015-Jul-06 20:04 UTC.
Position N 33°45' W 077°31'.

Length 30 m; draft 4.1 m.

Type: Tug. MMSI: 366988420.

Date/timePositionNaut miles runAvg speedWind from/ knotsBaromVisibWave heightAir tempDewpointWater temp
2015-Jul-04 19:29N 33°45' W 077°31'  
2015-Jul-01 17:18N 39°22' W 074°12'7 9.1
2015-Jul-01 16:33N 39°27' W 074°07'10 9.1
2015-Jul-01 15:30N 39°36' W 074°00'9 9.0
2015-Jul-01 14:33N 39°44' W 073°57'9 8.6
2015-Jul-01 13:33N 39°51' W 073°50'11 8.7
2015-Jul-01 12:15N 39°58' W 073°39'8 8.8
2015-Jul-01 11:21N 40°04' W 073°33'25 8.8
2015-Jul-01 08:31N 40°23' W 073°11'9 9.5
2015-Jul-01 07:33N 40°29' W 073°03'9 9.4
2015-Jul-01 06:33N 40°36' W 072°54'12 9.5
2015-Jul-01 05:17N 40°43' W 072°41'7 9.6
2015-Jul-01 04:33N 40°46' W 072°32'10 9.5
2015-Jul-01 03:33N 40°50' W 072°21'9 9.4
2015-Jul-01 02:33N 40°53' W 072°10'9 9.3
2015-Jul-01 01:33N 40°57' W 071°58'9 9.3
2015-Jul-01 00:33N 41°01' W 071°47'8 8.3
2015-Jun-30 23:33N 41°09' W 071°42'8 7.9
2015-Jun-30 22:33N 41°15' W 071°37'9 8.9
2015-Jun-30 21:33N 41°20' W 071°27'9 9.0
2015-Jun-30 20:33N 41°28' W 071°22'8 7.7
2015-Jun-30 19:33N 41°36' W 071°18'7 7.5
2015-Jun-30 18:33N 41°43' W 071°20'6 5.6
2015-Jun-30 17:32N 41°48' W 071°24'0 0.0
2015-Jun-30 13:15N 41°48' W 071°23'0 0.0
2015-Jun-30 12:33N 41°48' W 071°23'0 0.1
2015-Jun-30 11:32N 41°48' W 071°23'0 0.1
2015-Jun-30 10:33N 41°48' W 071°23'0 0.0
2015-Jun-30 09:28N 41°48' W 071°23'0 0.0
2015-Jun-30 08:33N 41°48' W 071°23'0 0.0
2015-Jun-30 07:33N 41°48' W 071°23'0 0.0
2015-Jun-30 06:33N 41°48' W 071°23'0 0.0
2015-Jun-30 05:33N 41°48' W 071°23'0 0.0
2015-Jun-30 04:31N 41°48' W 071°23'0 0.0
2015-Jun-30 03:33N 41°48' W 071°23'0 0.0
2015-Jun-30 02:33N 41°48' W 071°23'0 0.0
2015-Jun-30 01:27N 41°48' W 071°23'0 0.0
2015-Jun-30 00:30N 41°48' W 071°23'0 0.0
2015-Jun-29 23:18N 41°48' W 071°23'0 0.0
2015-Jun-29 22:33N 41°48' W 071°23'0 0.0
2015-Jun-29 21:33N 41°48' W 071°23'0 0.0
2015-Jun-29 19:33N 41°48' W 071°23'0 0.0
2015-Jun-29 18:03N 41°48' W 071°23'0 0.0
2015-Jun-29 13:31N 41°48' W 071°23'0 0.0
2015-Jun-29 12:33N 41°48' W 071°23'0 0.0
2015-Jun-29 11:30N 41°48' W 071°23'0 0.0
2015-Jun-29 10:33N 41°48' W 071°23'0 0.0
2015-Jun-29 09:25N 41°48' W 071°23'0 0.0
2015-Jun-29 08:29N 41°48' W 071°23'0 0.0
2015-Jun-29 07:33N 41°48' W 071°23'0 0.0
2015-Jun-29 06:30N 41°48' W 071°23'0 0.0
2015-Jun-29 05:33N 41°48' W 071°23'0 0.0
2015-Jun-29 04:33N 41°48' W 071°23'0 0.0
2015-Jun-29 03:33N 41°48' W 071°24'0 0.0
2015-Jun-29 02:33N 41°48' W 071°24'0 0.0
2015-Jun-29 01:33N 41°48' W 071°23'0 0.0
2015-Jun-29 00:33N 41°48' W 071°23'0 0.0
2015-Jun-28 23:33N 41°48' W 071°23'0 0.0
2015-Jun-28 22:33N 41°48' W 071°23'0 0.2
2015-Jun-28 20:30N 41°48' W 071°23'5 5.5
2015-Jun-28 19:33N 41°43' W 071°20'7 6.5
2015-Jun-28 18:26N 41°36' W 071°18'5 6.2
2015-Jun-28 17:33N 41°31' W 071°21'4 4.2
2015-Jun-28 16:33N 41°27' W 071°23'5 5.2
2015-Jun-28 15:33N 41°22' W 071°25'5 4.8
2015-Jun-28 14:33N 41°18' W 071°28'5 5.0
2015-Jun-28 13:33N 41°18' W 071°35'5 5.3
2015-Jun-28 12:33N 41°17' W 071°42'5 5.4
2015-Jun-28 11:33N 41°16' W 071°49'4 4.0
2015-Jun-28 10:33N 41°15' W 071°54'3 3.0
2015-Jun-28 09:33N 41°14' W 071°58'3 2.5
2015-Jun-28 08:33N 41°14' W 072°01'4 3.8
2015-Jun-28 07:33N 41°14' W 072°06'5 5.3
2015-Jun-28 06:33N 41°12' W 072°13'7 6.7
2015-Jun-28 05:33N 41°10' W 072°22'7 6.8
2015-Jun-28 04:33N 41°09' W 072°31'7 7.1
2015-Jun-28 03:33N 41°07' W 072°40'7 6.7
2015-Jun-28 02:33N 41°06' W 072°49'6 6.5
2015-Jun-28 01:33N 41°04' W 072°57'6 6.2
2015-Jun-28 00:33N 41°02' W 073°05'6 6.2
2015-Jun-27 23:33N 41°01' W 073°13'6 6.2
2015-Jun-27 22:33N 41°01' W 073°21'6 6.1
2015-Jun-27 21:33N 40°59' W 073°29'6 6.3
2015-Jun-27 20:33N 40°56' W 073°36'6 6.5
2015-Jun-27 19:33N 40°53' W 073°44'4 4.1
2015-Jun-27 18:31N 40°49' W 073°47'6 5.6
2015-Jun-27 17:31N 40°48' W 073°54'5 5.2
2015-Jun-27 16:33N 40°44' W 073°58'3 3.0
2015-Jun-27 15:33N 40°43' W 074°01'3 2.6
2015-Jun-27 14:33N 40°45' W 074°01'0 0.1
2015-Jun-27 13:33N 40°45' W 074°01'0 0.1
2015-Jun-27 12:33N 40°45' W 074°01'3 2.9
2015-Jun-27 11:33N 40°42' W 074°02'5 5.4
2015-Jun-27 10:33N 40°37' W 074°03'4 4.2
2015-Jun-27 09:33N 40°33' W 074°02'6 6.1
2015-Jun-27 08:33N 40°29' W 073°55'6 6.4
2015-Jun-27 07:33N 40°23' W 073°54'7 7.4
2015-Jun-27 06:33N 40°16' W 073°54'7 7.3
2015-Jun-27 05:33N 40°08' W 073°55'8 7.5
2015-Jun-27 04:29N 40°00' W 073°56'7 7.5
2015-Jun-27 03:33N 39°53' W 073°56'7 7.2
2015-Jun-27 02:33N 39°46' W 073°58'7 6.9
2015-Jun-27 01:33N 39°40' W 074°01'7 6.9
2015-Jun-27 00:33N 39°33' W 074°05'7 7.1
2015-Jun-26 23:33N 39°27' W 074°09'150 6.7
2015-Jun-26 01:17N 37°02' W 074°57'  

Dump ship's entire track history